Time;durP1;ratioP1;P1;durP2;ratioP2;P2;SDS_P1;SDS_P2;PMS_P1;PMS_P2;Temp;Humidity;BMP_temperature;BMP_pressure;BME280_temperature;BME280_humidity;BME280_pressure;Samples;Min_cycle;Max_cycle;Signal;HPM_P1;HPM_P2
2022/08/07 00:00:26;;;;;;;4.70;2.60;;;;;;;13.84;76.08;102500.78;6217900;23;20004;-86
2022/08/07 00:02:52;;;;;;;5.78;2.88;;;;;;;13.88;76.48;102509.41;6190085;23;20008;-86
2022/08/07 00:05:17;;;;;;;8.03;3.23;;;;;;;13.86;76.90;102512.34;6217027;23;20012;-86
2022/08/07 00:07:45;;;;;;;7.47;3.00;;;;;;;13.78;76.96;102498.84;6165504;23;20016;-86
2022/08/07 00:10:13;;;;;;;5.82;2.90;;;;;;;13.72;77.45;102499.63;6189996;23;20016;-87
2022/08/07 00:12:38;;;;;;;4.05;3.10;;;;;;;13.66;77.62;102493.91;6190383;23;20031;-87
2022/08/07 00:15:10;;;;;;;5.53;2.93;;;;;;;13.63;77.45;102486.13;6190399;23;20012;-86
2022/08/07 00:17:35;;;;;;;6.03;2.90;;;;;;;13.63;77.94;102494.31;6189951;23;20013;-87
2022/08/07 00:20:08;;;;;;;5.53;3.40;;;;;;;13.64;78.69;102495.13;6189861;23;20546;-86
2022/08/07 00:22:34;;;;;;;6.75;3.50;;;;;;;13.62;78.46;102489.88;6190270;23;20011;-87
2022/08/07 00:25:06;;;;;;;8.40;3.40;;;;;;;13.61;78.25;102495.53;6165434;23;20016;-87
2022/08/07 00:27:32;;;;;;;5.00;3.05;;;;;;;13.48;78.59;102483.47;6216999;23;20004;-86
2022/08/07 00:29:57;;;;;;;6.67;3.20;;;;;;;13.49;78.70;102493.34;6216760;23;20039;-86
2022/08/07 00:32:22;;;;;;;5.32;3.00;;;;;;;13.45;79.27;102475.69;6189722;23;20435;-86
2022/08/07 00:34:48;;;;;;;4.13;2.80;;;;;;;13.43;78.82;102476.91;6189892;23;20051;-86
2022/08/07 00:37:15;;;;;;;4.97;3.40;;;;;;;13.42;79.62;102478.81;6190092;23;20385;-86
2022/08/07 00:39:40;;;;;;;4.40;3.38;;;;;;;13.36;79.53;102474.13;6216671;23;20015;-86
2022/08/07 00:42:09;;;;;;;4.90;3.03;;;;;;;13.28;79.95;102466.03;6189927;23;20342;-86
2022/08/07 00:44:37;;;;;;;3.70;3.33;;;;;;;13.27;79.93;102456.16;6216655;23;20093;-86
2022/08/07 00:47:07;;;;;;;5.13;3.38;;;;;;;13.21;79.66;102463.22;6189742;23;20430;-86
2022/08/07 00:49:40;;;;;;;5.28;3.13;;;;;;;13.18;79.26;102469.06;6216552;23;20032;-86
2022/08/07 00:52:11;;;;;;;5.15;3.60;;;;;;;13.13;80.15;102461.47;6189452;23;20009;-86
2022/08/07 00:54:36;;;;;;;5.73;3.33;;;;;;;13.16;80.66;102473.88;6190480;23;20013;-86
2022/08/07 00:57:06;;;;;;;7.82;3.85;;;;;;;13.09;80.92;102462.91;6189990;23;20378;-86
2022/08/07 00:59:32;;;;;;;7.50;3.63;;;;;;;13.08;81.75;102463.09;6190782;23;20044;-86
2022/08/07 01:01:57;;;;;;;6.53;3.67;;;;;;;13.04;81.69;102461.81;6215662;23;20080;-86
2022/08/07 01:04:25;;;;;;;3.70;3.13;;;;;;;13.01;81.77;102462.16;6189829;23;20411;-86
2022/08/07 01:06:51;;;;;;;6.13;4.10;;;;;;;13.03;82.46;102458.22;6164805;23;20019;-86
2022/08/07 01:09:24;;;;;;;5.27;3.47;;;;;;;12.96;81.71;102449.13;6216099;23;20009;-86
2022/08/07 01:11:53;;;;;;;4.82;3.47;;;;;;;12.93;82.77;102444.06;6189522;23;20049;-86
2022/08/07 01:14:20;;;;;;;5.85;3.75;;;;;;;12.93;83.48;102455.81;6190084;23;20334;-86
2022/08/07 01:16:49;;;;;;;4.37;3.63;;;;;;;12.90;82.90;102452.63;6189360;23;20059;-86
2022/08/07 01:19:16;;;;;;;4.22;3.80;;;;;;;12.90;82.51;102452.63;6189668;23;20005;-86
2022/08/07 01:21:46;;;;;;;6.95;3.92;;;;;;;12.82;82.90;102442.69;6189751;23;20012;-86
2022/08/07 01:24:12;;;;;;;6.50;4.15;;;;;;;12.85;82.79;102444.19;6189387;23;20004;-86
2022/08/07 01:26:42;;;;;;;5.32;3.78;;;;;;;12.83;82.47;102455.28;6164909;23;20373;-86
2022/08/07 01:29:07;;;;;;;5.40;4.07;;;;;;;12.71;83.23;102440.44;6216054;23;20020;-85
2022/08/07 01:31:36;;;;;;;6.47;4.20;;;;;;;12.67;83.00;102437.28;6216326;23;20304;-86
2022/08/07 01:34:02;;;;;;;5.82;4.03;;;;;;;12.72;83.58;102450.31;6189178;23;20354;-86
2022/08/07 01:36:28;;;;;;;11.20;4.20;;;;;;;12.60;83.35;102434.47;6216260;23;20058;-86
2022/08/07 01:38:58;;;;;;;5.85;4.15;;;;;;;12.61;83.45;102438.88;6189478;23;20047;-86
2022/08/07 01:41:24;;;;;;;4.63;3.90;;;;;;;12.50;83.95;102435.78;6215794;23;20071;-86
2022/08/07 01:43:53;;;;;;;6.80;4.33;;;;;;;12.50;84.07;102435.78;6189515;23;20013;-86
2022/08/07 01:46:21;;;;;;;5.35;4.20;;;;;;;12.51;84.43;102441.06;6215755;23;20112;-86
2022/08/07 01:48:52;;;;;;;7.78;4.50;;;;;;;12.43;84.13;102436.56;6189486;23;20051;-86
2022/08/07 01:51:23;;;;;;;4.65;4.18;;;;;;;12.38;84.41;102435.44;6189501;23;20005;-86
2022/08/07 01:53:56;;;;;;;6.50;4.43;;;;;;;12.32;84.65;102434.31;6189496;23;20071;-86
2022/08/07 01:56:44;;;;;;;7.77;4.30;;;;;;;12.35;84.39;102433.91;6189656;23;20013;-86
2022/08/07 01:59:21;;;;;;;5.18;4.40;;;;;;;12.34;84.58;102436.84;6189522;23;20005;-86
2022/08/07 02:02:06;;;;;;;7.57;4.45;;;;;;;12.28;84.28;102432.97;6189023;23;20008;-87
2022/08/07 02:04:55;;;;;;;7.78;4.22;;;;;;;12.29;84.97;102437.41;6215923;23;20076;-86
2022/08/07 02:07:35;;;;;;;12.40;4.25;;;;;;;12.23;85.37;102422.66;6189639;23;20016;-86
2022/08/07 02:10:05;;;;;;;7.60;4.50;;;;;;;12.18;85.52;102430.56;6189484;23;20012;-86
2022/08/07 02:12:37;;;;;;;7.07;4.40;;;;;;;12.18;85.75;102425.13;6189687;23;20004;-86
2022/08/07 02:15:04;;;;;;;6.28;4.90;;;;;;;12.23;85.85;102432.72;6189786;23;20426;-86
2022/08/07 02:17:34;;;;;;;9.07;4.70;;;;;;;12.11;86.26;102422.28;6189017;23;20035;-86
2022/08/07 02:20:01;;;;;;;6.93;5.28;;;;;;;12.14;86.21;102431.97;6216094;23;20407;-88
2022/08/07 02:22:31;;;;;;;6.40;4.57;;;;;;;12.13;87.21;102432.97;6189111;23;20047;-86
2022/08/07 02:25:01;;;;;;;7.53;4.57;;;;;;;12.08;87.49;102424.56;6189601;23;20012;-86
2022/08/07 02:27:27;;;;;;;8.63;5.03;;;;;;;12.06;87.39;102424.75;6189377;23;20403;-86
2022/08/07 02:29:58;;;;;;;6.50;4.60;;;;;;;12.04;87.51;102415.91;6217085;23;20012;-86
2022/08/07 02:32:24;;;;;;;7.03;5.18;;;;;;;12.08;88.29;102421.84;6190856;23;20004;-86
2022/08/07 02:34:54;;;;;;;5.77;4.80;;;;;;;12.08;88.44;102417.22;6191156;23;20500;-86
2022/08/07 02:37:20;;;;;;;6.00;4.80;;;;;;;12.06;87.96;102423.88;6167047;23;20438;-86
2022/08/07 02:39:47;;;;;;;7.03;5.10;;;;;;;12.05;88.53;102419.50;6217447;23;20426;-86
2022/08/07 02:42:16;;;;;;;7.40;5.40;;;;;;;12.04;88.58;102418.63;6166699;23;20012;-86
2022/08/07 02:44:43;;;;;;;6.78;4.88;;;;;;;12.01;88.03;102410.00;6191034;23;20008;-87
2022/08/07 02:47:10;;;;;;;7.67;4.57;;;;;;;12.07;87.97;102423.69;6191060;23;20009;-86
2022/08/07 02:49:38;;;;;;;6.82;4.72;;;;;;;12.02;87.76;102420.69;6217412;23;20012;-86
2022/08/07 02:52:08;;;;;;;6.00;5.07;;;;;;;11.97;87.94;102409.53;6191335;23;20361;-86
2022/08/07 02:54:42;;;;;;;7.18;4.85;;;;;;;11.96;88.09;102412.44;6190778;23;20019;-86
2022/08/07 02:57:14;;;;;;;10.23;5.00;;;;;;;11.89;88.60;102402.25;6191284;23;20449;-86
2022/08/07 02:59:47;;;;;;;7.53;4.70;;;;;;;11.85;88.56;102403.66;6217375;23;20123;-86
2022/08/07 03:02:13;;;;;;;8.07;4.80;;;;;;;11.89;88.85;102417.75;6190597;23;20009;-86
2022/08/07 03:04:44;;;;;;;6.03;4.80;;;;;;;11.88;89.23;102414.16;6190998;23;20005;-86
2022/08/07 03:07:13;;;;;;;8.07;5.15;;;;;;;11.81;89.44;102410.53;6190676;23;20039;-86
2022/08/07 03:09:40;;;;;;;7.53;5.25;;;;;;;11.78;89.43;102402.75;6190929;23;20036;-86
2022/08/07 03:12:09;;;;;;;9.10;5.43;;;;;;;11.84;89.45;102417.44;6190611;23;20016;-86
2022/08/07 03:14:38;;;;;;;6.78;5.25;;;;;;;11.77;89.81;102403.75;6190955;23;20009;-86
2022/08/07 03:17:07;;;;;;;6.45;5.30;;;;;;;11.74;90.10;102404.13;6191179;23;20087;-86
2022/08/07 03:19:34;;;;;;;7.93;5.20;;;;;;;11.74;89.23;102410.41;6217463;23;20553;-86
2022/08/07 03:22:04;;;;;;;10.32;5.47;;;;;;;11.72;89.36;102414.34;6190675;23;20005;-86
2022/08/07 03:24:30;;;;;;;9.97;5.67;;;;;;;11.73;89.58;102413.31;6190876;23;20154;-86
2022/08/07 03:27:02;;;;;;;10.48;5.53;;;;;;;11.64;89.12;102401.66;6166100;23;20433;-86
2022/08/07 03:29:35;;;;;;;9.40;5.35;;;;;;;11.65;90.19;102410.66;6216958;23;20051;-86
2022/08/07 03:32:06;;;;;;;5.82;5.10;;;;;;;11.66;89.42;102406.91;6190191;23;20449;-86
2022/08/07 03:34:39;;;;;;;7.07;5.13;;;;;;;11.64;89.96;102412.53;6190843;23;20009;-86
2022/08/07 03:37:09;;;;;;;5.35;4.75;;;;;;;11.61;90.47;102407.47;6167227;23;20013;-86
2022/08/07 03:39:37;;;;;;;8.48;5.35;;;;;;;11.62;90.08;102409.19;6217025;23;20361;-86
2022/08/07 03:42:06;;;;;;;7.18;5.22;;;;;;;11.53;90.47;102391.22;6191112;23;20009;-86
2022/08/07 03:44:34;;;;;;;9.35;5.60;;;;;;;11.54;90.86;102401.09;6216850;23;20009;-86
2022/08/07 03:47:00;;;;;;;9.13;5.10;;;;;;;11.57;91.05;102407.00;6190763;23;20342;-86
2022/08/07 03:49:30;;;;;;;7.80;5.82;;;;;;;11.55;90.62;102409.06;6165984;23;20016;-87
2022/08/07 03:51:57;;;;;;;8.90;5.32;;;;;;;11.48;90.78;102413.53;6189919;23;20071;-86
2022/08/07 03:54:26;;;;;;;9.57;6.03;;;;;;;11.53;92.46;102416.56;6216607;23;20012;-86
2022/08/07 03:56:54;;;;;;;9.00;6.40;;;;;;;11.50;93.25;102418.78;6217089;23;20001;-86
2022/08/07 03:59:24;;;;;;;10.67;5.80;;;;;;;11.52;94.15;102419.47;6190599;23;20005;-85
2022/08/07 04:01:55;;;;;;;8.18;5.65;;;;;;;11.45;93.16;102404.91;6190684;23;20047;-86
2022/08/07 04:04:21;;;;;;;7.35;5.22;;;;;;;11.44;92.50;102414.94;6189942;23;20047;-85
2022/08/07 04:06:47;;;;;;;9.95;5.43;;;;;;;11.45;92.01;102418.50;6190345;23;20038;-86
2022/08/07 04:09:17;;;;;;;8.83;5.20;;;;;;;11.40;91.36;102417.16;6190526;23;20001;-86
2022/08/07 04:11:48;;;;;;;9.48;5.75;;;;;;;11.41;91.08;102412.56;6217048;23;20423;-86
2022/08/07 04:14:14;;;;;;;9.77;5.43;;;;;;;11.46;91.55;102426.47;6216581;23;20088;-86
2022/08/07 04:16:44;;;;;;;7.97;5.22;;;;;;;11.47;91.23;102424.59;6189832;23;20020;-86
2022/08/07 04:19:09;;;;;;;7.63;5.68;;;;;;;11.46;91.04;102422.91;6190527;23;20036;-86
2022/08/07 04:21:35;;;;;;;8.20;5.93;;;;;;;11.44;91.22;102433.97;6190052;23;20091;-86
2022/08/07 04:24:09;;;;;;;9.97;5.77;;;;;;;11.41;91.08;102423.44;6190169;23;20013;-86
2022/08/07 04:26:38;;;;;;;8.73;5.25;;;;;;;11.42;91.24;102419.69;6217030;23;20015;-86
2022/08/07 04:29:06;;;;;;;8.35;5.40;;;;;;;11.44;91.44;102423.09;6189783;23;20084;-86
2022/08/07 04:31:34;;;;;;;8.18;5.20;;;;;;;11.46;91.27;102431.06;6190296;23;20027;-86
2022/08/07 04:34:00;;;;;;;8.90;5.30;;;;;;;11.47;91.30;102451.75;6216404;23;20000;-86
2022/08/07 04:36:26;;;;;;;8.73;5.37;;;;;;;11.43;90.72;102432.28;6216797;23;20005;-86
2022/08/07 04:38:51;;;;;;;9.63;5.50;;;;;;;11.42;90.76;102433.28;6216782;23;20004;-86
2022/08/07 04:41:17;;;;;;;10.10;5.73;;;;;;;11.42;91.08;102433.28;6217046;23;20403;-86
2022/08/07 04:43:43;;;;;;;11.00;5.53;;;;;;;11.48;91.24;102437.16;6190071;23;20032;-86
2022/08/07 04:46:40;;;;;;;10.63;6.07;;;;;;;11.48;91.42;102435.28;6189745;23;20013;-86
2022/08/07 04:49:47;;;;;;;10.73;5.75;;;;;;;11.51;90.70;102434.91;6190269;23;20012;-86
2022/08/07 04:52:28;;;;;;;6.93;5.47;;;;;;;11.61;90.45;102441.97;6188621;23;20041;-86
2022/08/07 04:55:05;;;;;;;12.53;5.53;;;;;;;11.55;89.94;102438.97;6189949;23;20341;-86
2022/08/07 04:58:11;;;;;;;8.77;5.68;;;;;;;11.63;89.77;102443.47;6216622;23;20008;-86
2022/08/07 05:01:18;;;;;;;9.65;5.85;;;;;;;11.65;90.16;102441.44;6210369;23;20017;-86
2022/08/07 05:03:56;;;;;;;10.90;5.78;;;;;;;11.67;90.59;102439.34;6108948;23;20005;-86
2022/08/07 05:06:37;;;;;;;12.48;6.20;;;;;;;11.67;90.15;102446.69;6216706;23;20075;-86
2022/08/07 05:09:09;;;;;;;9.00;6.10;;;;;;;11.76;90.78;102453.72;6189942;23;20090;-86
2022/08/07 05:11:49;;;;;;;9.80;5.53;;;;;;;11.80;90.50;102446.06;6190083;23;20020;-86
2022/08/07 05:14:21;;;;;;;10.25;5.60;;;;;;;11.82;90.70;102447.53;6216805;23;20032;-86
2022/08/07 05:16:52;;;;;;;12.05;5.90;;;;;;;11.92;90.42;102450.00;6189314;23;20096;-86
2022/08/07 05:19:24;;;;;;;8.77;5.88;;;;;;;11.96;90.90;102448.66;6216442;23;20011;-86
2022/08/07 05:21:54;;;;;;;10.93;5.83;;;;;;;11.99;90.50;102455.56;6189790;23;20004;-86
2022/08/07 05:24:31;;;;;;;9.25;5.57;;;;;;;12.03;90.52;102451.47;6216050;23;20001;-86
2022/08/07 05:27:01;;;;;;;8.68;5.57;;;;;;;12.13;91.34;102449.31;6189769;23;20095;-86
2022/08/07 05:29:31;;;;;;;9.32;5.85;;;;;;;12.22;90.96;102460.94;6189458;23;20009;-86
2022/08/07 05:32:01;;;;;;;16.55;6.05;;;;;;;12.25;90.33;102449.69;6216136;23;20004;-86
2022/08/07 05:34:36;;;;;;;10.40;5.93;;;;;;;12.37;90.14;102461.81;6215829;23;20015;-86
2022/08/07 05:37:07;;;;;;;7.75;5.85;;;;;;;12.36;89.64;102457.41;6189557;23;20005;-86
2022/08/07 05:39:44;;;;;;;8.68;5.70;;;;;;;12.41;89.37;102463.09;6216217;23;20071;-86
2022/08/07 05:42:11;;;;;;;13.73;5.70;;;;;;;12.47;88.84;102464.22;6189553;23;20012;-86
2022/08/07 05:44:43;;;;;;;7.35;5.60;;;;;;;12.59;88.76;102460.03;6189981;23;20442;-90
2022/08/07 05:47:18;;;;;;;14.10;6.30;;;;;;;12.67;89.06;102453.63;6189632;23;20032;-86
2022/08/07 05:49:48;;;;;;;9.35;6.28;;;;;;;12.73;88.08;102458.28;6165341;23;20020;-88
2022/08/07 05:52:14;;;;;;;9.43;5.80;;;;;;;12.85;87.75;102466.00;6189407;23;20028;-89
2022/08/07 05:54:41;;;;;;;9.93;5.83;;;;;;;12.89;87.54;102451.78;6188952;23;20426;-90
2022/08/07 05:57:19;;;;;;;8.30;5.60;;;;;;;12.96;87.14;102458.16;6164659;23;20736;-89
2022/08/07 05:59:48;;;;;;;8.90;5.53;;;;;;;13.08;87.35;102466.69;6164744;23;20012;-88
2022/08/07 06:02:18;;;;;;;10.50;5.90;;;;;;;13.14;86.86;102474.06;6189218;23;20419;-88
2022/08/07 06:04:51;;;;;;;8.50;6.32;;;;;;;13.14;86.44;102465.91;6191328;23;20042;-88
2022/08/07 06:07:30;;;;;;;7.63;5.85;;;;;;;13.22;86.23;102469.53;6218213;23;20004;-88
2022/08/07 06:09:56;;;;;;;7.13;5.93;;;;;;;13.28;85.94;102468.75;6191395;23;20013;-87
2022/08/07 06:12:27;;;;;;;8.10;6.03;;;;;;;13.40;86.01;102480.88;6191546;23;20076;-88
2022/08/07 06:14:53;;;;;;;8.18;6.03;;;;;;;13.41;84.78;102465.38;6191592;23;20103;-87
2022/08/07 06:17:19;;;;;;;8.23;6.17;;;;;;;13.54;85.39;102479.13;6190953;23;20013;-87
2022/08/07 06:20:06;;;;;;;8.23;6.03;;;;;;;13.61;85.93;102471.00;6191203;23;20005;-87
2022/08/07 06:22:32;;;;;;;9.45;6.30;;;;;;;13.64;85.02;102468.72;6193596;23;20012;-87
2022/08/07 06:25:00;;;;;;;9.18;6.50;;;;;;;13.76;84.40;102479.09;6191510;23;20008;-87
2022/08/07 06:27:26;;;;;;;11.68;6.38;;;;;;;13.84;84.21;102477.06;6191287;23;20088;-86
2022/08/07 06:29:53;;;;;;;9.20;6.37;;;;;;;13.95;84.21;102474.84;6191763;23;20504;-86
2022/08/07 06:32:24;;;;;;;9.27;6.60;;;;;;;13.93;82.94;102464.13;6190347;23;20004;-88
2022/08/07 06:34:58;;;;;;;9.77;6.18;;;;;;;14.06;82.39;102477.03;6190615;23;20092;-88
2022/08/07 06:37:27;;;;;;;10.73;7.30;;;;;;;14.11;82.06;102474.53;6191010;23;20004;-87
2022/08/07 06:39:56;;;;;;;9.88;6.15;;;;;;;14.16;81.92;102466.59;6190680;23;20012;-87
2022/08/07 06:42:37;;;;;;;9.65;6.93;;;;;;;14.24;81.39;102471.06;6217139;23;20001;-88
2022/08/07 06:45:18;;;;;;;8.50;6.30;;;;;;;14.32;80.45;102470.03;6190887;23;20031;-88
2022/08/07 06:47:44;;;;;;;11.55;6.93;;;;;;;14.38;80.18;102463.81;6191122;23;20008;-87
2022/08/07 06:50:17;;;;;;;10.43;7.10;;;;;;;14.47;80.21;102469.94;6190420;23;20016;-87
2022/08/07 06:52:55;;;;;;;10.60;7.57;;;;;;;14.53;79.01;102455.47;6190655;23;20016;-87
2022/08/07 06:55:45;;;;;;;12.93;7.80;;;;;;;14.57;78.52;102449.41;6190749;23;20092;-86
2022/08/07 06:58:21;;;;;;;13.77;7.97;;;;;;;14.65;78.67;102450.31;6190866;23;20008;-87
2022/08/07 07:00:48;;;;;;;13.02;8.13;;;;;;;14.78;78.14;102453.09;6191248;23;20421;-87
2022/08/07 07:03:17;;;;;;;11.97;7.37;;;;;;;14.78;77.89;102442.16;6190252;23;20071;-87
2022/08/07 07:05:44;;;;;;;10.57;7.93;;;;;;;14.84;77.85;102438.59;6190834;23;20005;-87
2022/08/07 07:08:12;;;;;;;13.93;8.20;;;;;;;14.91;77.86;102444.94;6190903;23;20004;-88
2022/08/07 07:10:38;;;;;;;14.95;8.18;;;;;;;14.99;77.54;102454.00;6165533;23;20012;-88
2022/08/07 07:13:23;;;;;;;11.67;7.60;;;;;;;15.06;76.75;102461.16;6190910;23;20008;-87
2022/08/07 07:15:59;;;;;;;11.70;7.75;;;;;;;15.10;76.33;102464.31;6216689;23;20004;-87
2022/08/07 07:18:42;;;;;;;11.55;7.80;;;;;;;15.18;76.00;102463.31;6190560;23;20066;-87
2022/08/07 07:21:35;;;;;;;11.48;7.82;;;;;;;15.29;75.77;102468.16;6190087;23;20012;-87
2022/08/07 07:24:01;;;;;;;11.77;7.43;;;;;;;15.40;74.59;102466.72;6192596;23;20020;-86
2022/08/07 07:26:31;;;;;;;40.30;8.52;;;;;;;15.39;74.56;102451.34;6190681;23;20288;-88
2022/08/07 07:29:12;;;;;;;12.77;7.78;;;;;;;15.48;74.86;102452.81;6190964;23;20008;-87
2022/08/07 07:31:49;;;;;;;10.65;7.10;;;;;;;15.58;74.61;102461.44;6190400;23;20012;-86
2022/08/07 07:34:22;;;;;;;10.57;7.40;;;;;;;15.62;74.76;102445.47;6189923;23;20009;-86
2022/08/07 07:36:49;;;;;;;8.13;6.30;;;;;;;15.73;72.63;102457.69;6190802;23;20027;-86
2022/08/07 07:39:20;;;;;;;8.30;5.75;;;;;;;15.76;72.85;102446.31;6190893;23;20423;-86
2022/08/07 07:41:50;;;;;;;9.05;5.95;;;;;;;15.86;72.41;102452.22;6217335;23;20011;-86
2022/08/07 07:44:20;;;;;;;9.00;6.82;;;;;;;15.90;72.90;102438.94;6190460;23;20009;-86
2022/08/07 07:46:48;;;;;;;10.40;6.50;;;;;;;15.96;73.47;102435.38;6217234;23;20005;-86
2022/08/07 07:49:19;;;;;;;9.03;6.37;;;;;;;16.06;73.28;102444.00;6217128;23;20076;-84
2022/08/07 07:51:54;;;;;;;8.88;6.47;;;;;;;16.11;73.22;102437.88;6190240;23;20005;-87
2022/08/07 07:54:27;;;;;;;11.82;5.90;;;;;;;16.17;72.30;102427.97;6190375;23;20009;-87
2022/08/07 07:57:06;;;;;;;8.63;5.90;;;;;;;16.20;71.02;102431.09;6166172;23;20051;-86
2022/08/07 07:59:33;;;;;;;10.15;5.93;;;;;;;16.28;70.23;102430.88;6190336;23;20092;-88
2022/08/07 08:02:07;;;;;;;10.33;5.93;;;;;;;16.32;70.07;102428.53;6190434;23;20004;-88
2022/08/07 08:04:42;;;;;;;8.77;6.05;;;;;;;16.35;69.90;102430.03;6189806;23;20008;-88
2022/08/07 08:07:17;;;;;;;12.43;5.40;;;;;;;16.41;70.04;102429.16;6190246;23;20008;-88
2022/08/07 08:09:54;;;;;;;8.93;5.72;;;;;;;16.52;70.23;102438.59;6216920;23;20083;-88
2022/08/07 08:12:23;;;;;;;8.68;5.43;;;;;;;16.54;70.66;102434.59;6189633;23;20031;-88
2022/08/07 08:14:53;;;;;;;7.50;5.50;;;;;;;16.65;68.93;102433.06;6190435;23;20009;-88
2022/08/07 08:17:22;;;;;;;8.43;5.50;;;;;;;16.72;68.59;102427.56;6190412;23;20016;-88
2022/08/07 08:19:51;;;;;;;8.25;4.60;;;;;;;16.78;66.99;102435.72;6190193;23;20009;-89
2022/08/07 08:27:55;;;;;;;9.30;5.00;;;;;;;16.99;66.66;102428.28;6216958;23;20019;-88
2022/08/07 08:30:24;;;;;;;7.45;4.85;;;;;;;17.12;67.39;102441.91;6189439;23;20016;-88
2022/08/07 08:32:56;;;;;;;10.88;5.20;;;;;;;17.13;66.79;102435.34;6190387;23;20012;-88
2022/08/07 08:35:50;;;;;;;10.63;5.40;;;;;;;17.21;66.94;102441.66;6189733;23;20004;-88
2022/08/07 08:38:32;;;;;;;5.55;4.40;;;;;;;17.27;65.80;102444.34;6216188;23;20005;-88
2022/08/07 08:41:32;;;;;;;6.90;4.07;;;;;;;17.34;66.10;102430.56;6189619;23;20036;-88
2022/08/07 08:44:23;;;;;;;7.47;3.33;;;;;;;17.46;64.75;102436.19;6042081;23;20042;-89
2022/08/07 08:47:18;;;;;;;5.25;3.40;;;;;;;17.60;64.25;102445.13;6189206;23;20005;-88
2022/08/07 08:50:03;;;;;;;6.25;3.88;;;;;;;17.70;64.44;102450.97;6216706;23;19996;-88
2022/08/07 08:52:37;;;;;;;7.93;4.15;;;;;;;17.74;62.67;102435.72;6189977;23;20032;-88
2022/08/07 08:55:22;;;;;;;6.60;3.67;;;;;;;17.90;63.08;102445.34;6216657;23;20025;-88
2022/08/07 08:58:16;;;;;;;5.50;3.03;;;;;;;17.91;60.10;102430.56;6190026;23;20070;-87
2022/08/07 09:00:55;;;;;;;5.43;3.10;;;;;;;18.00;60.86;102431.94;6190658;23;20031;-88
2022/08/07 09:03:49;;;;;;;6.30;3.10;;;;;;;18.16;60.36;102447.00;6216412;23;20005;-88
2022/08/07 09:06:44;;;;;;;8.98;3.50;;;;;;;18.25;60.28;102442.03;6175393;23;20005;-88
2022/08/07 09:09:53;;;;;;;;;;;;;;;;;;;;;
2022/08/07 09:13:18;;;;;;;7.78;3.15;;;;;;;18.44;60.20;102425.53;6216707;23;20414;-87
2022/08/07 09:16:10;;;;;;;6.80;3.80;;;;;;;18.58;59.53;102418.81;6190251;23;20016;-87
2022/08/07 09:19:18;;;;;;;4.70;3.47;;;;;;;18.74;59.65;102426.41;6189713;23;20043;-87
2022/08/07 09:21:55;;;;;;;4.80;3.40;;;;;;;18.86;57.69;102436.66;6216001;23;20004;-88
2022/08/07 09:24:40;;;;;;;4.83;3.10;;;;;;;19.03;57.42;102432.19;6215976;23;20055;-87
2022/08/07 09:27:47;;;;;;;6.75;3.60;;;;;;;19.05;56.35;102430.03;6189600;23;20319;-87
2022/08/07 09:30:16;;;;;;;6.68;3.97;;;;;;;19.06;55.60;102415.22;6189307;23;20004;-85
2022/08/07 09:32:54;;;;;;;12.48;3.47;;;;;;;19.17;54.48;102427.31;6164758;23;20011;-88
2022/08/07 09:36:12;;;;;;;;;;;;;;;;;;;;;
2022/08/07 09:39:19;;;;;;;7.40;3.33;;;;;;;19.45;56.36;102420.31;6206505;23;20083;-88
2022/08/07 09:42:45;;;;;;;7.57;3.38;;;;;;;19.61;55.68;102416.88;6203114;23;20008;-88
2022/08/07 09:45:42;;;;;;;4.90;3.22;;;;;;;19.83;53.65;102421.81;6188601;23;20330;-88
2022/08/07 09:48:35;;;;;;;4.00;2.67;;;;;;;19.91;52.67;102410.44;6185267;23;20020;-88
2022/08/07 09:51:22;;;;;;;3.92;3.08;;;;;;;19.98;51.34;102411.16;6189548;23;20339;-88
2022/08/07 09:54:14;;;;;;;5.40;3.57;;;;;;;20.11;52.78;102398.22;6189752;23;20100;-88
2022/08/07 09:57:19;;;;;;;7.00;3.78;;;;;;;20.33;52.83;102409.44;6178185;23;20011;-88
2022/08/07 10:00:21;;;;;;;4.82;3.25;;;;;;;20.50;51.36;102396.53;6189474;23;20008;-88
2022/08/07 10:03:10;;;;;;;6.25;2.95;;;;;;;20.62;51.08;102392.91;6188738;23;20803;-90
2022/08/07 10:06:24;;;;;;;5.22;3.58;;;;;;;20.66;50.99;102380.34;6188993;23;20009;-88
2022/08/07 10:09:22;;;;;;;5.53;3.30;;;;;;;20.87;50.24;102375.22;6215740;23;20000;-88
2022/08/07 10:12:17;;;;;;;5.60;3.30;;;;;;;20.99;49.16;102387.88;6168736;23;20024;-88
2022/08/07 10:15:12;;;;;;;4.63;2.72;;;;;;;20.97;47.73;102361.59;6185986;23;20017;-89
2022/08/07 10:18:07;;;;;;;4.88;2.70;;;;;;;21.13;47.40;102365.47;6185005;23;20016;-89
2022/08/07 10:21:04;;;;;;;;;;;;;;;;;;;;;
2022/08/07 10:24:00;;;;;;;4.77;3.20;;;;;;;21.55;46.45;102376.09;6185901;23;20079;-88
2022/08/07 10:26:34;;;;;;;4.85;2.83;;;;;;;21.64;44.83;102380.13;6159010;23;20005;-88
2022/08/07 10:29:27;;;;;;;3.17;2.60;;;;;;;21.79;44.90;102371.22;6159345;23;20005;-89
2022/08/07 10:32:26;;;;;;;6.05;2.72;;;;;;;21.97;43.66;102375.63;6159473;23;20436;-88
2022/08/07 10:35:06;;;;;;;5.00;2.85;;;;;;;22.13;44.17;102367.50;6158929;23;20004;-88
2022/08/07 10:38:22;;;;;;;6.13;3.00;;;;;;;22.45;45.50;102367.66;6185938;23;20125;-88
2022/08/07 10:41:13;;;;;;;3.40;2.78;;;;;;;22.74;43.88;102359.97;6185786;23;20016;-84
2022/08/07 10:44:11;;;;;;;3.42;2.75;;;;;;;23.08;44.17;102353.34;6159439;23;20063;-83
2022/08/07 10:47:10;;;;;;;5.15;2.60;;;;;;;23.42;43.50;102350.34;6146115;23;20462;-84
2022/08/07 10:50:07;;;;;;;5.38;2.50;;;;;;;23.51;41.65;102343.19;6185014;23;20001;-83
2022/08/07 10:52:54;;;;;;;3.70;2.70;;;;;;;23.62;40.45;102338.53;6160937;23;20005;-84
2022/08/07 10:55:26;;;;;;;4.57;2.83;;;;;;;23.71;39.30;102349.94;6187251;23;20063;-84
2022/08/07 10:57:58;;;;;;;4.88;2.90;;;;;;;23.83;39.90;102345.03;6187049;23;20040;-83
2022/08/07 11:00:29;;;;;;;3.90;2.45;;;;;;;24.10;39.59;102341.31;6160487;23;20067;-83
2022/08/07 11:03:13;;;;;;;3.42;2.70;;;;;;;24.35;38.98;102333.06;6186399;23;20076;-83
2022/08/07 11:06:01;;;;;;;3.40;2.57;;;;;;;24.73;37.70;102345.94;6187286;23;20005;-83
2022/08/07 11:08:47;;;;;;;5.30;2.30;;;;;;;24.95;37.60;102338.22;6187285;23;20482;-83
2022/08/07 11:11:38;;;;;;;2.92;2.40;;;;;;;25.14;35.90;102332.09;6160416;23;20009;-83
2022/08/07 11:14:25;;;;;;;4.85;2.80;;;;;;;25.60;35.86;102325.66;6160522;23;20009;-83
2022/08/07 11:17:29;;;;;;;4.30;2.70;;;;;;;25.83;36.25;102326.97;6160901;23;20009;-83
2022/08/07 11:20:00;;;;;;;4.00;2.70;;;;;;;26.13;33.63;102309.38;6186639;23;19996;-83
2022/08/07 11:22:41;;;;;;;4.47;2.72;;;;;;;26.75;32.17;102312.63;6187267;23;20075;-83
2022/08/07 11:25:15;;;;;;;4.18;2.60;;;;;;;28.53;29.76;102303.66;6160629;23;20442;-83
2022/08/07 11:28:03;;;;;;;3.80;2.80;;;;;;;32.18;28.48;102303.78;6160609;23;20005;-83
2022/08/07 11:30:38;;;;;;;3.10;2.50;;;;;;;34.82;23.07;102297.91;6160252;23;20016;-84
2022/08/07 11:33:25;;;;;;;3.83;2.77;;;;;;;37.33;23.60;102296.34;6160752;23;20063;-83
2022/08/07 11:36:10;;;;;;;3.08;2.65;;;;;;;39.01;19.52;102300.44;6160620;23;20304;-83
2022/08/07 11:39:06;;;;;;;3.55;2.83;;;;;;;38.56;18.89;102284.97;6160588;23;20009;-83
2022/08/07 11:41:45;;;;;;;3.92;3.30;;;;;;;36.77;20.92;102276.69;6187115;23;20458;-83
2022/08/07 11:44:54;;;;;;;3.92;2.95;;;;;;;38.68;19.53;102286.84;6160376;23;20001;-83
2022/08/07 11:47:50;;;;;;;5.17;2.60;;;;;;;40.89;18.91;102271.84;6107218;23;20001;-85
2022/08/07 11:50:21;;;;;;;4.32;3.17;;;;;;;42.60;15.82;102273.31;6160748;23;20059;-85
2022/08/07 11:55:55;;;;;;;4.97;3.40;;;;;;;44.84;12.83;102268.66;6187005;23;20068;-84
2022/08/07 11:58:39;;;;;;;4.15;3.85;;;;;;;45.91;11.89;102262.31;6187009;23;20011;-84
2022/08/07 12:01:46;;;;;;;7.37;4.40;;;;;;;47.11;13.24;102250.69;6186737;23;20005;-84
2022/08/07 12:04:24;;;;;;;4.75;4.35;;;;;;;47.67;11.76;102257.84;6159753;23;20084;-86
2022/08/07 12:06:58;;;;;;;4.78;4.25;;;;;;;48.49;10.65;102249.53;6186897;23;20032;-86
2022/08/07 12:09:50;;;;;;;4.82;4.43;;;;;;;49.03;11.21;102245.28;6160563;23;20007;-85
2022/08/07 12:12:27;;;;;;;5.90;5.40;;;;;;;49.67;10.23;102242.69;6160528;23;20020;-85
2022/08/07 12:15:22;;;;;;;5.40;5.00;;;;;;;49.68;10.23;102229.91;6160066;23;20059;-86
2022/08/07 12:18:05;;;;;;;6.43;5.97;;;;;;;50.56;9.93;102228.81;6161515;23;20009;-85